Time;durP1;ratioP1;P1;durP2;ratioP2;P2;SDS_P1;SDS_P2;PMS_P1;PMS_P2;Temp;Humidity;BMP_temperature;BMP_pressure;BME280_temperature;BME280_humidity;BME280_pressure;Samples;Min_cycle;Max_cycle;Signal;HPM_P1;HPM_P2
2021/03/01 00:01:50;;;;;;;19.85;11.32;;;2.70;77.50;;;;;;5014736;28;20041;-75
2021/03/01 00:04:15;;;;;;;15.73;11.20;;;2.60;77.50;;;;;;4996937;28;20026;-76
2021/03/01 00:06:41;;;;;;;16.90;10.90;;;2.60;77.60;;;;;;4996592;28;20062;-77
2021/03/01 00:09:07;;;;;;;14.93;10.25;;;2.60;77.70;;;;;;5014558;28;20018;-78
2021/03/01 00:11:33;;;;;;;17.60;10.40;;;2.60;77.90;;;;;;4996976;28;20034;-76
2021/03/01 00:14:00;;;;;;;18.23;12.40;;;2.60;78.20;;;;;;5014642;28;20383;-76
2021/03/01 00:16:27;;;;;;;15.75;10.88;;;2.60;78.30;;;;;;5014787;28;20491;-75
2021/03/01 00:18:53;;;;;;;19.38;11.50;;;2.60;78.30;;;;;;5014623;28;20018;-75
2021/03/01 00:21:19;;;;;;;20.88;14.07;;;2.60;78.30;;;;;;4994822;28;20141;-75
2021/03/01 00:23:49;;;;;;;24.15;14.27;;;2.60;78.50;;;;;;5013156;28;20109;-76
2021/03/01 00:26:15;;;;;;;20.92;12.05;;;2.60;78.90;;;;;;4996606;28;20080;-77
2021/03/01 00:28:42;;;;;;;19.20;11.75;;;2.60;78.90;;;;;;5010191;28;20009;-77
2021/03/01 00:31:08;;;;;;;19.70;12.90;;;2.60;79.10;;;;;;5000545;28;20081;-75
2021/03/01 00:33:34;;;;;;;20.27;13.77;;;2.60;79.20;;;;;;5004624;28;20026;-75
2021/03/01 00:36:00;;;;;;;19.73;13.02;;;2.70;79.20;;;;;;5006076;28;20029;-75
2021/03/01 00:38:27;;;;;;;19.55;12.55;;;2.60;79.60;;;;;;5014229;28;20113;-76
2021/03/01 00:40:53;;;;;;;23.58;12.63;;;2.60;79.00;;;;;;5013937;28;20445;-76
2021/03/01 00:43:19;;;;;;;15.52;10.35;;;2.50;79.00;;;;;;5014290;28;20029;-75
2021/03/01 00:45:45;;;;;;;17.60;11.75;;;2.50;79.10;;;;;;5013880;28;20060;-77
2021/03/01 00:48:11;;;;;;;19.48;11.70;;;2.50;79.10;;;;;;4993292;28;20030;-76
2021/03/01 00:50:37;;;;;;;13.25;10.77;;;2.40;79.10;;;;;;5008756;28;20146;-74
2021/03/01 00:53:03;;;;;;;18.15;12.52;;;2.40;79.20;;;;;;5013985;28;20455;-75
2021/03/01 00:55:29;;;;;;;16.40;10.63;;;2.40;79.20;;;;;;5013868;28;20041;-77
2021/03/01 00:57:54;;;;;;;14.73;11.15;;;2.50;79.20;;;;;;4996086;28;20037;-75
2021/03/01 01:00:21;;;;;;;15.55;12.07;;;2.50;79.00;;;;;;5013842;28;20017;-75
2021/03/01 01:02:47;;;;;;;19.02;12.88;;;2.60;79.00;;;;;;4996001;28;20391;-77
2021/03/01 01:05:13;;;;;;;14.43;10.43;;;2.60;79.00;;;;;;4996241;28;20120;-75
2021/03/01 01:07:39;;;;;;;15.80;11.00;;;2.50;78.60;;;;;;5013539;28;20482;-74
2021/03/01 01:10:06;;;;;;;15.73;10.10;;;2.50;78.50;;;;;;5013719;28;20049;-75
2021/03/01 01:12:36;;;;;;;16.17;10.10;;;2.50;78.60;;;;;;5002731;28;20026;-76
2021/03/01 01:15:07;;;;;;;19.33;11.77;;;2.40;78.30;;;;;;5013582;28;20032;-76
2021/03/01 01:17:33;;;;;;;20.83;12.20;;;2.40;78.40;;;;;;5013258;28;20025;-76
2021/03/01 01:19:59;;;;;;;18.05;12.02;;;2.50;78.60;;;;;;5013556;28;20040;-77
2021/03/01 01:22:25;;;;;;;16.88;11.75;;;2.50;78.90;;;;;;5013510;28;20026;-76
2021/03/01 01:24:51;;;;;;;18.23;13.40;;;2.50;79.10;;;;;;5013570;28;20040;-77
2021/03/01 01:27:17;;;;;;;17.98;12.63;;;2.60;79.30;;;;;;4992438;28;20487;-76
2021/03/01 01:29:43;;;;;;;16.70;11.68;;;2.50;79.20;;;;;;5011702;28;20057;-76
2021/03/01 01:32:09;;;;;;;19.13;13.15;;;2.50;79.40;;;;;;5013415;28;20026;-76
2021/03/01 01:34:35;;;;;;;19.25;13.15;;;2.50;79.60;;;;;;5013206;28;20100;-74
2021/03/01 01:37:01;;;;;;;18.95;12.93;;;2.50;79.80;;;;;;5012717;28;20141;-76
2021/03/01 01:39:26;;;;;;;22.70;13.55;;;2.50;80.00;;;;;;5013238;28;20033;-76
2021/03/01 01:41:52;;;;;;;23.33;14.68;;;2.50;80.00;;;;;;5012884;28;20046;-75
2021/03/01 01:44:18;;;;;;;19.10;12.57;;;2.50;80.10;;;;;;4992242;28;20113;-75
2021/03/01 01:46:44;;;;;;;21.88;13.32;;;2.50;80.10;;;;;;5013191;28;20486;-74
2021/03/01 01:49:10;;;;;;;19.70;12.98;;;2.40;80.00;;;;;;4992437;28;20026;-76
2021/03/01 01:51:36;;;;;;;21.13;14.55;;;2.40;80.10;;;;;;5010774;28;20101;-77
2021/03/01 01:54:02;;;;;;;20.20;13.35;;;2.40;80.20;;;;;;5012944;28;20052;-77
2021/03/01 01:56:29;;;;;;;22.50;11.32;;;2.40;80.60;;;;;;5012596;28;20048;-75
2021/03/01 01:58:55;;;;;;;21.90;12.77;;;2.40;81.40;;;;;;5013261;28;20383;-77
2021/03/01 02:01:21;;;;;;;18.17;11.77;;;2.40;81.90;;;;;;5012789;28;20038;-75
2021/03/01 02:03:49;;;;;;;17.70;11.77;;;2.30;82.50;;;;;;5012682;28;20049;-75
2021/03/01 02:06:36;;;;;;;15.95;11.18;;;2.30;83.10;;;;;;5013124;28;20026;-77
2021/03/01 02:09:39;;;;;;;18.80;10.70;;;2.20;83.60;;;;;;5000639;28;20422;-75
2021/03/01 02:12:19;;;;;;;17.88;12.82;;;2.20;83.70;;;;;;5012576;28;20033;-75
2021/03/01 02:15:12;;;;;;;18.80;11.65;;;2.20;83.80;;;;;;5012759;28;20040;-74
2021/03/01 02:17:37;;;;;;;18.70;11.68;;;2.20;84.10;;;;;;5012566;28;20053;-74
2021/03/01 02:20:08;;;;;;;19.15;12.43;;;2.10;84.30;;;;;;4995105;28;20026;-75
2021/03/01 02:22:34;;;;;;;20.25;11.95;;;2.10;85.20;;;;;;5006142;28;20484;-76
2021/03/01 02:25:06;;;;;;;18.60;12.18;;;2.10;84.80;;;;;;4983465;28;20033;-76
2021/03/01 02:27:54;;;;;;;17.35;11.77;;;2.10;85.00;;;;;;4989832;28;20394;-75
2021/03/01 02:30:39;;;;;;;18.13;11.13;;;2.20;85.00;;;;;;5005517;28;20034;-74
2021/03/01 02:33:14;;;;;;;15.70;12.18;;;2.20;85.00;;;;;;5000765;28;20022;-75
2021/03/01 02:35:46;;;;;;;17.77;13.05;;;2.10;85.30;;;;;;5012271;28;20026;-76
2021/03/01 02:38:12;;;;;;;18.20;12.18;;;2.00;85.70;;;;;;5012536;28;20361;-76
2021/03/01 02:40:41;;;;;;;19.20;12.13;;;2.00;85.80;;;;;;5012264;28;20391;-75
2021/03/01 02:43:08;;;;;;;20.27;12.32;;;2.00;85.90;;;;;;4994728;28;20053;-75
2021/03/01 02:45:36;;;;;;;20.63;12.80;;;2.00;85.80;;;;;;5012538;28;20493;-75
2021/03/01 02:48:03;;;;;;;17.55;12.23;;;2.10;85.80;;;;;;5012648;28;20017;-75
2021/03/01 02:50:30;;;;;;;19.75;13.23;;;2.10;85.70;;;;;;5015113;28;20557;-75
2021/03/01 02:52:57;;;;;;;17.02;11.93;;;2.10;85.70;;;;;;5016098;28;20479;-76
2021/03/01 02:55:24;;;;;;;18.70;12.60;;;2.00;85.60;;;;;;5016167;28;20034;-76
2021/03/01 02:57:51;;;;;;;18.20;11.70;;;2.10;85.80;;;;;;5016022;28;20032;-76
2021/03/01 03:00:18;;;;;;;20.02;14.13;;;2.10;85.80;;;;;;4998518;28;20038;-75
2021/03/01 03:02:45;;;;;;;18.35;12.00;;;2.00;85.90;;;;;;5016010;28;20025;-75
2021/03/01 03:05:13;;;;;;;17.67;12.13;;;2.10;85.90;;;;;;5016009;28;20018;-76
2021/03/01 03:07:42;;;;;;;17.55;14.07;;;2.10;85.80;;;;;;4998616;28;20546;-74
2021/03/01 03:10:09;;;;;;;19.75;14.07;;;2.00;86.00;;;;;;5015638;28;20434;-76
2021/03/01 03:12:39;;;;;;;19.13;13.63;;;2.00;86.00;;;;;;5015760;28;20018;-75
2021/03/01 03:15:06;;;;;;;17.88;12.88;;;2.00;86.20;;;;;;5015674;28;20105;-75
2021/03/01 03:17:37;;;;;;;16.83;12.05;;;1.90;86.30;;;;;;5015724;28;20018;-76
2021/03/01 03:20:06;;;;;;;18.00;12.38;;;1.80;86.40;;;;;;5015580;28;20042;-76
2021/03/01 03:22:33;;;;;;;18.50;12.25;;;1.90;86.70;;;;;;5015507;28;20018;-76
2021/03/01 03:24:59;;;;;;;19.58;11.68;;;1.80;86.70;;;;;;5015762;28;20029;-75
2021/03/01 03:27:25;;;;;;;13.35;10.20;;;1.80;86.80;;;;;;5015364;28;20026;-76
2021/03/01 03:29:51;;;;;;;15.60;9.95;;;1.80;87.00;;;;;;5014062;28;20177;-76
2021/03/01 03:32:17;;;;;;;15.27;10.20;;;1.80;87.00;;;;;;5015373;28;20044;-76
2021/03/01 03:34:44;;;;;;;15.55;10.68;;;1.70;87.10;;;;;;4997965;28;20060;-75
2021/03/01 03:37:15;;;;;;;13.40;8.23;;;1.80;87.10;;;;;;4994579;28;20034;-74
2021/03/01 03:39:45;;;;;;;13.63;8.88;;;1.70;87.00;;;;;;4997824;28;20022;-76
2021/03/01 03:42:16;;;;;;;13.40;9.45;;;1.70;87.20;;;;;;5015206;28;20570;-77
2021/03/01 03:44:43;;;;;;;11.50;7.57;;;1.80;87.30;;;;;;5015221;28;20049;-77
2021/03/01 03:47:09;;;;;;;12.90;8.35;;;1.80;87.20;;;;;;5013860;28;20018;-78
2021/03/01 03:49:37;;;;;;;9.40;7.18;;;1.80;87.20;;;;;;5014934;28;20056;-76
2021/03/01 03:52:06;;;;;;;11.38;7.32;;;1.70;87.40;;;;;;5013626;28;20030;-75
2021/03/01 03:54:34;;;;;;;11.70;7.65;;;1.70;87.60;;;;;;5012937;28;20026;-74
2021/03/01 03:57:03;;;;;;;9.88;7.65;;;1.70;87.80;;;;;;4993883;28;20038;-76
2021/03/01 03:59:33;;;;;;;10.32;7.45;;;1.70;88.00;;;;;;5010182;28;20079;-76
2021/03/01 04:01:59;;;;;;;9.18;7.65;;;1.80;88.20;;;;;;4996838;28;20053;-77
2021/03/01 04:04:27;;;;;;;16.65;7.50;;;1.70;88.20;;;;;;5014783;28;20029;-76
2021/03/01 04:06:55;;;;;;;9.82;7.43;;;1.70;88.30;;;;;;5014936;28;20091;-76
2021/03/01 04:09:26;;;;;;;11.70;8.63;;;1.80;88.40;;;;;;5014844;28;20025;-75
2021/03/01 04:11:53;;;;;;;11.10;7.90;;;1.70;88.60;;;;;;5014588;28;20096;-75
2021/03/01 04:14:21;;;;;;;13.20;8.43;;;1.70;88.70;;;;;;5014680;28;20097;-75
2021/03/01 04:16:50;;;;;;;11.48;7.45;;;1.70;88.80;;;;;;5014242;28;20507;-74
2021/03/01 04:19:18;;;;;;;11.73;8.30;;;1.60;88.70;;;;;;5014564;28;20103;-76
2021/03/01 04:21:46;;;;;;;10.48;6.57;;;1.70;88.90;;;;;;4993447;28;20083;-76
2021/03/01 04:24:14;;;;;;;10.02;6.90;;;1.70;89.00;;;;;;5013467;28;20524;-75
2021/03/01 04:26:41;;;;;;;9.75;7.90;;;1.60;89.00;;;;;;5014432;28;20026;-78
2021/03/01 04:29:07;;;;;;;9.38;7.28;;;1.60;89.00;;;;;;5012954;28;20399;-79
2021/03/01 04:31:34;;;;;;;9.10;6.43;;;1.60;89.00;;;;;;5014077;28;20391;-76
2021/03/01 04:34:04;;;;;;;9.18;7.80;;;1.60;89.10;;;;;;5003754;28;20029;-77
2021/03/01 04:36:31;;;;;;;10.30;7.38;;;1.60;89.40;;;;;;4999382;28;20122;-76
2021/03/01 04:38:57;;;;;;;11.73;7.43;;;1.70;89.50;;;;;;4998262;28;20061;-76
2021/03/01 04:41:23;;;;;;;13.27;8.85;;;1.70;89.40;;;;;;4993267;28;20082;-77
2021/03/01 04:43:50;;;;;;;11.55;8.00;;;1.70;89.30;;;;;;4998398;28;20106;-77
2021/03/01 04:46:17;;;;;;;9.63;7.38;;;1.70;89.30;;;;;;5000153;28;20029;-77
2021/03/01 04:48:46;;;;;;;10.50;7.50;;;1.80;89.20;;;;;;4989737;28;20115;-75
2021/03/01 04:51:13;;;;;;;10.38;8.00;;;1.80;89.20;;;;;;5012434;28;20137;-77
2021/03/01 04:53:41;;;;;;;12.02;8.13;;;1.70;89.30;;;;;;5006983;28;20029;-78
2021/03/01 04:56:07;;;;;;;11.68;8.75;;;1.70;89.50;;;;;;4974096;28;20046;-76
2021/03/01 04:58:36;;;;;;;12.52;8.98;;;1.80;89.60;;;;;;4993088;28;20025;-77
2021/03/01 05:01:04;;;;;;;12.52;8.75;;;1.80;89.30;;;;;;4995558;28;20439;-77
2021/03/01 05:03:32;;;;;;;10.25;7.90;;;1.80;89.30;;;;;;4997376;28;20072;-78
2021/03/01 05:06:00;;;;;;;11.60;7.53;;;1.80;89.30;;;;;;4997146;28;20384;-77
2021/03/01 05:08:28;;;;;;;12.45;8.75;;;1.80;89.50;;;;;;4999047;28;20411;-76
2021/03/01 05:10:56;;;;;;;22.83;13.95;;;1.80;89.40;;;;;;4984247;28;20480;-77
2021/03/01 05:13:23;;;;;;;13.40;9.18;;;1.80;89.40;;;;;;4999268;28;20041;-77
2021/03/01 05:15:49;;;;;;;12.52;8.38;;;1.90;89.40;;;;;;5003796;28;20395;-78
2021/03/01 05:18:15;;;;;;;13.38;8.90;;;1.80;89.20;;;;;;5005070;28;20034;-75
2021/03/01 05:20:41;;;;;;;13.75;8.50;;;1.80;89.20;;;;;;5006213;28;20069;-77
2021/03/01 05:23:07;;;;;;;11.00;8.35;;;1.80;89.10;;;;;;5013266;28;20026;-77
2021/03/01 05:25:33;;;;;;;11.38;7.60;;;1.90;89.10;;;;;;5010248;28;20114;-77
2021/03/01 05:27:59;;;;;;;11.32;8.75;;;1.90;88.90;;;;;;5004272;28;20030;-77
2021/03/01 05:30:26;;;;;;;11.18;7.55;;;2.00;88.80;;;;;;5001583;28;20026;-77
2021/03/01 05:32:51;;;;;;;11.63;8.30;;;2.00;88.50;;;;;;5009732;28;20030;-76
2021/03/01 05:35:17;;;;;;;9.88;7.93;;;2.10;88.30;;;;;;4993931;28;20038;-78
2021/03/01 05:37:43;;;;;;;9.02;6.78;;;2.10;87.90;;;;;;5008865;28;20130;-76
2021/03/01 05:40:09;;;;;;;11.25;7.47;;;2.10;88.00;;;;;;5009836;28;20053;-78
2021/03/01 05:42:37;;;;;;;10.52;7.63;;;2.10;88.00;;;;;;5008830;28;20113;-77
2021/03/01 05:45:08;;;;;;;11.27;7.85;;;2.00;87.90;;;;;;4990976;28;20018;-78
2021/03/01 05:47:35;;;;;;;12.82;7.55;;;2.10;88.20;;;;;;5003881;28;20030;-76
2021/03/01 05:50:03;;;;;;;11.45;8.65;;;2.00;88.90;;;;;;5012630;28;20022;-77
2021/03/01 05:52:31;;;;;;;12.00;7.80;;;2.10;89.00;;;;;;4994935;28;20422;-77
2021/03/01 05:55:00;;;;;;;11.50;6.65;;;2.30;88.60;;;;;;4998316;28;20341;-81
2021/03/01 05:57:27;;;;;;;10.98;7.20;;;2.40;88.10;;;;;;5001593;28;20030;-82
2021/03/01 05:59:54;;;;;;;10.88;7.43;;;2.40;87.90;;;;;;5004108;28;20018;-82
2021/03/01 06:02:20;;;;;;;12.90;6.97;;;2.50;88.20;;;;;;4995093;28;20153;-79
2021/03/01 06:04:46;;;;;;;7.88;5.95;;;2.60;87.90;;;;;;5003821;28;20018;-80
2021/03/01 06:07:13;;;;;;;12.27;6.85;;;2.70;86.80;;;;;;5003153;28;20399;-76
2021/03/01 06:09:41;;;;;;;8.23;5.30;;;2.60;86.80;;;;;;4990496;28;20437;-76
2021/03/01 06:12:07;;;;;;;9.75;7.20;;;2.80;86.70;;;;;;5011271;28;20018;-77
2021/03/01 06:14:35;;;;;;;7.97;5.85;;;2.90;86.00;;;;;;5012207;28;20026;-77
2021/03/01 06:17:19;;;;;;;8.95;5.78;;;2.90;85.90;;;;;;5010360;28;20025;-78
2021/03/01 06:19:50;;;;;;;7.13;4.80;;;3.00;85.00;;;;;;5012057;28;20026;-76
2021/03/01 06:22:18;;;;;;;7.25;4.90;;;3.00;84.50;;;;;;4994151;28;20479;-77
2021/03/01 06:25:05;;;;;;;7.03;5.47;;;2.90;84.40;;;;;;5010143;28;20026;-77
2021/03/01 06:27:31;;;;;;;9.73;5.45;;;3.00;83.80;;;;;;5011150;28;20057;-76
2021/03/01 06:30:07;;;;;;;6.57;4.95;;;3.10;83.10;;;;;;5011826;28;20030;-77
2021/03/01 06:32:36;;;;;;;9.35;4.70;;;3.30;82.40;;;;;;5010237;28;20475;-78
2021/03/01 06:35:03;;;;;;;6.78;4.55;;;3.30;81.70;;;;;;4991045;28;20022;-77
2021/03/01 06:37:32;;;;;;;5.80;4.25;;;3.40;80.80;;;;;;5007624;28;20113;-76
2021/03/01 06:39:58;;;;;;;6.30;4.25;;;3.30;79.60;;;;;;4999602;28;20480;-77
2021/03/01 06:42:27;;;;;;;7.28;5.65;;;3.30;79.20;;;;;;5011402;28;20050;-78
2021/03/01 06:45:00;;;;;;;8.60;6.22;;;3.10;78.20;;;;;;5010656;28;20022;-76
2021/03/01 06:47:52;;;;;;;11.52;5.60;;;3.00;78.00;;;;;;5011351;28;20586;-76
2021/03/01 06:50:45;;;;;;;8.35;5.15;;;3.00;78.30;;;;;;4986733;28;20573;-77
2021/03/01 06:53:11;;;;;;;7.43;4.03;;;3.00;76.70;;;;;;5024660;28;20105;-78
2021/03/01 06:56:00;;;;;;;5.05;3.58;;;3.00;74.80;;;;;;5002556;28;20102;-77
2021/03/01 06:58:28;;;;;;;6.43;4.40;;;3.10;72.90;;;;;;5011932;28;20022;-76
2021/03/01 07:01:18;;;;;;;8.30;4.53;;;3.20;72.50;;;;;;5012151;28;20030;-77
2021/03/01 07:03:47;;;;;;;4.85;3.33;;;3.40;71.90;;;;;;5000765;28;20081;-77
2021/03/01 07:06:13;;;;;;;4.85;3.50;;;3.50;70.20;;;;;;5011464;28;20468;-76
2021/03/01 07:08:54;;;;;;;7.47;4.25;;;3.70;70.00;;;;;;5011353;28;20029;-76
2021/03/01 07:11:29;;;;;;;6.78;4.63;;;3.90;69.40;;;;;;5011368;28;20029;-77
2021/03/01 07:13:59;;;;;;;6.97;4.32;;;4.10;68.40;;;;;;5011876;28;20422;-77
2021/03/01 07:16:27;;;;;;;8.05;4.30;;;4.20;68.30;;;;;;5011140;28;20034;-76
2021/03/01 07:18:54;;;;;;;5.07;3.72;;;4.40;67.00;;;;;;5011762;28;20559;-76
2021/03/01 07:21:21;;;;;;;4.68;3.38;;;4.50;66.20;;;;;;5011793;28;20022;-76
2021/03/01 07:23:48;;;;;;;5.63;3.78;;;4.70;65.40;;;;;;4994579;28;20030;-77
2021/03/01 07:26:16;;;;;;;4.57;3.08;;;5.00;64.50;;;;;;4991361;28;20033;-75
2021/03/01 07:28:52;;;;;;;6.03;3.53;;;5.00;61.00;;;;;;4988295;28;20037;-76
2021/03/01 07:31:21;;;;;;;3.38;2.83;;;4.90;61.20;;;;;;5011193;28;20048;-77
2021/03/01 07:33:48;;;;;;;3.80;2.90;;;4.70;60.80;;;;;;5012113;28;20025;-76
2021/03/01 07:36:15;;;;;;;6.15;4.05;;;4.70;61.20;;;;;;5014309;28;20399;-77
2021/03/01 07:38:42;;;;;;;6.00;3.70;;;4.70;61.20;;;;;;5015744;28;20423;-76
2021/03/01 07:41:10;;;;;;;5.43;3.42;;;4.90;62.40;;;;;;4998005;28;20104;-77
2021/03/01 07:43:41;;;;;;;4.18;2.80;;;4.90;61.70;;;;;;5015688;28;20076;-78
2021/03/01 07:46:08;;;;;;;3.75;2.85;;;4.90;59.70;;;;;;5014107;28;20166;-76
2021/03/01 07:48:43;;;;;;;5.73;3.17;;;4.80;60.60;;;;;;5015148;28;20017;-76
2021/03/01 07:51:10;;;;;;;2.53;2.05;;;4.80;61.20;;;;;;5015020;28;20026;-79
2021/03/01 07:53:50;;;;;;;;;;;4.60;60.40;;;;;;4998190;28;20022;-76
2021/03/01 07:56:25;;;;;;;3.75;2.28;;;4.40;61.50;;;;;;4997849;28;19913;-76
2021/03/01 07:59:01;;;;;;;3.28;2.60;;;4.30;61.10;;;;;;5015124;28;20026;-76
2021/03/01 08:01:29;;;;;;;6.15;3.00;;;4.20;61.00;;;;;;5013497;28;20525;-78
2021/03/01 08:03:55;;;;;;;4.97;3.17;;;4.20;62.00;;;;;;5014716;28;20026;-76
2021/03/01 08:06:22;;;;;;;4.80;2.72;;;4.30;62.20;;;;;;5014405;28;20030;-77
2021/03/01 08:08:54;;;;;;;3.08;2.45;;;4.40;61.60;;;;;;5013557;28;20034;-77
2021/03/01 08:11:38;;;;;;;5.80;2.88;;;4.40;60.90;;;;;;5014773;28;20137;-76
2021/03/01 08:14:14;;;;;;;4.32;2.40;;;4.40;61.20;;;;;;5004261;28;20530;-78
2021/03/01 08:16:40;;;;;;;6.70;2.88;;;4.40;61.70;;;;;;4997037;28;20146;-77
2021/03/01 08:19:06;;;;;;;2.70;2.00;;;4.40;61.20;;;;;;4994996;28;20456;-77
2021/03/01 08:22:04;;;;;;;2.60;1.95;;;4.30;61.40;;;;;;5009799;28;20026;-77
2021/03/01 08:24:49;;;;;;;5.30;2.70;;;4.30;61.20;;;;;;5002372;28;20032;-78
2021/03/01 08:27:26;;;;;;;2.67;2.03;;;4.20;61.90;;;;;;5014260;28;20040;-78
2021/03/01 08:30:17;;;;;;;3.55;2.42;;;4.10;61.40;;;;;;5014263;28;20053;-78
2021/03/01 08:33:03;;;;;;;2.72;1.95;;;4.00;61.20;;;;;;5014031;28;20042;-77
2021/03/01 08:35:29;;;;;;;3.15;2.80;;;4.00;61.60;;;;;;5012556;28;20053;-75
2021/03/01 08:37:55;;;;;;;3.35;2.55;;;4.10;61.90;;;;;;4996392;28;20193;-77
2021/03/01 08:40:22;;;;;;;4.90;2.60;;;4.20;62.10;;;;;;5013937;28;20026;-78
2021/03/01 08:42:48;;;;;;;4.43;2.55;;;4.20;62.10;;;;;;5013993;28;20026;-76
2021/03/01 08:45:21;;;;;;;4.03;2.80;;;4.40;61.90;;;;;;5003127;28;20037;-77
2021/03/01 08:47:55;;;;;;;5.82;3.03;;;4.50;61.80;;;;;;5013576;28;20018;-79
2021/03/01 08:50:23;;;;;;;3.88;2.50;;;4.70;61.70;;;;;;5013918;28;20040;-76
2021/03/01 08:52:49;;;;;;;2.45;1.73;;;4.70;61.90;;;;;;5013728;28;20014;-76
2021/03/01 08:55:17;;;;;;;4.68;2.53;;;4.70;60.30;;;;;;5013973;28;20049;-79
2021/03/01 08:57:59;;;;;;;;;;;4.60;61.10;;;;;;5013885;28;20068;-76
2021/03/01 09:00:28;;;;;;;4.18;2.28;;;4.60;61.90;;;;;;5013907;28;19905;-77
2021/03/01 09:03:12;;;;;;;3.92;2.40;;;4.60;61.10;;;;;;5013595;28;20086;-76
2021/03/01 09:05:40;;;;;;;5.55;1.75;;;4.60;61.60;;;;;;5013585;28;20068;-77
2021/03/01 09:08:07;;;;;;;3.30;2.35;;;4.50;62.10;;;;;;5012213;28;20124;-76
2021/03/01 09:10:37;;;;;;;2.20;1.95;;;4.60;61.50;;;;;;5013760;28;20414;-76
2021/03/01 09:13:04;;;;;;;3.00;2.10;;;4.60;61.00;;;;;;5013217;28;20029;-79
2021/03/01 09:15:30;;;;;;;3.70;2.33;;;4.60;61.20;;;;;;5013422;28;20014;-77
2021/03/01 09:17:56;;;;;;;3.38;2.42;;;4.70;61.30;;;;;;5012227;28;20266;-76
2021/03/01 09:20:23;;;;;;;4.88;2.20;;;4.70;60.80;;;;;;4994854;28;20185;-78
2021/03/01 09:22:49;;;;;;;4.10;2.10;;;4.70;60.40;;;;;;5012437;28;20045;-77
2021/03/01 09:25:32;;;;;;;4.20;2.17;;;4.40;61.00;;;;;;5013369;28;20024;-78
2021/03/01 09:27:58;;;;;;;3.42;2.00;;;4.40;61.40;;;;;;5001488;28;20026;-76
2021/03/01 09:30:25;;;;;;;3.70;1.80;;;4.20;61.80;;;;;;5013289;28;20018;-77
2021/03/01 09:33:01;;;;;;;2.10;1.60;;;4.30;62.10;;;;;;5013353;28;20045;-75
2021/03/01 09:35:29;;;;;;;5.05;1.80;;;4.30;62.30;;;;;;5005892;28;20492;-76
2021/03/01 09:37:55;;;;;;;1.42;1.27;;;4.30;61.90;;;;;;5013228;28;20577;-77
2021/03/01 09:40:26;;;;;;;2.42;1.73;;;4.20;62.10;;;;;;5013545;28;20022;-77
2021/03/01 09:43:06;;;;;;;2.55;1.63;;;4.10;62.60;;;;;;5013298;28;20041;-77
2021/03/01 09:45:35;;;;;;;4.13;1.83;;;4.20;63.00;;;;;;5013669;28;20034;-76
2021/03/01 09:48:04;;;;;;;2.25;1.40;;;4.20;63.00;;;;;;5013557;28;20105;-77
2021/03/01 09:50:31;;;;;;;3.75;1.65;;;4.10;63.30;;;;;;5013431;28;20022;-78
2021/03/01 09:52:58;;;;;;;3.97;2.25;;;4.00;63.30;;;;;;5013249;28;20055;-78
2021/03/01 09:55:24;;;;;;;2.95;1.92;;;4.00;64.20;;;;;;5013091;28;20065;-76
2021/03/01 09:57:51;;;;;;;2.63;1.80;;;4.00;64.30;;;;;;4994791;28;20053;-78
2021/03/01 10:00:29;;;;;;;3.58;2.30;;;4.10;64.40;;;;;;5011461;28;20096;-75
2021/03/01 10:02:55;;;;;;;;;;;4.20;64.20;;;;;;5012886;28;20387;-78
2021/03/01 10:05:21;;;;;;;3.03;2.33;;;4.10;64.20;;;;;;5012848;28;19910;-77
2021/03/01 10:07:57;;;;;;;3.15;1.95;;;4.10;64.40;;;;;;4992129;28;20022;-79
2021/03/01 10:10:24;;;;;;;4.38;2.30;;;4.20;64.80;;;;;;5000123;28;20023;-77
2021/03/01 10:12:51;;;;;;;4.35;1.40;;;4.20;64.80;;;;;;5011498;28;20849;-76
2021/03/01 10:15:19;;;;;;;2.70;1.63;;;4.20;64.80;;;;;;5012483;28;20030;-77
2021/03/01 10:17:45;;;;;;;;;;;4.10;65.00;;;;;;5012958;28;20279;-78
2021/03/01 10:20:13;;;;;;;3.17;2.10;;;4.20;65.30;;;;;;5012497;28;19909;-78
2021/03/01 10:22:59;;;;;;;4.55;2.38;;;4.30;65.50;;;;;;5012459;28;20057;-76
2021/03/01 10:25:37;;;;;;;1.48;1.30;;;4.40;65.70;;;;;;5012103;28;20022;-78
2021/03/01 10:28:22;;;;;;;2.22;1.55;;;4.20;65.30;;;;;;5012073;28;20041;-76
2021/03/01 10:31:06;;;;;;;3.05;1.02;;;4.00;65.80;;;;;;5012233;28;20052;-76
2021/03/01 10:33:53;;;;;;;1.67;1.30;;;3.90;66.00;;;;;;5012132;28;20029;-78
2021/03/01 10:36:20;;;;;;;2.25;1.30;;;3.80;66.50;;;;;;4999480;28;20368;-77
2021/03/01 10:38:58;;;;;;;3.15;1.50;;;3.90;66.90;;;;;;5012998;28;20018;-79
2021/03/01 10:41:41;;;;;;;;;;;;;;;;;;;;;
2021/03/01 10:44:08;;;;;;;4.03;2.65;;;4.00;67.00;;;;;;5012594;28;20030;-76
2021/03/01 10:46:39;;;;;;;2.95;1.80;;;4.20;66.70;;;;;;5011302;28;20021;-76
2021/03/01 10:49:25;;;;;;;2.47;1.40;;;4.30;66.00;;;;;;5005319;28;20026;-78
2021/03/01 10:51:52;;;;;;;5.28;2.05;;;4.40;65.70;;;;;;5001235;28;20396;-77
2021/03/01 10:54:19;;;;;;;1.52;1.33;;;4.30;65.60;;;;;;4991992;28;20027;-76
2021/03/01 10:56:45;;;;;;;2.85;1.85;;;4.30;65.50;;;;;;5011970;28;20113;-77
2021/03/01 10:59:11;;;;;;;2.15;1.45;;;4.10;65.90;;;;;;4994346;28;20122;-77
2021/03/01 11:01:43;;;;;;;3.40;1.75;;;4.20;66.40;;;;;;5010897;28;20438;-78
2021/03/01 11:04:10;;;;;;;2.10;1.52;;;4.30;66.20;;;;;;5012262;28;20106;-76
2021/03/01 11:06:36;;;;;;;4.10;2.13;;;4.30;66.10;;;;;;5010862;28;20026;-79
2021/03/01 11:09:04;;;;;;;2.63;1.42;;;4.30;66.40;;;;;;5012039;28;20022;-77
2021/03/01 11:11:30;;;;;;;2.10;1.25;;;4.20;66.30;;;;;;5014337;28;20045;-79
2021/03/01 11:13:56;;;;;;;3.80;1.90;;;4.20;66.60;;;;;;5015803;28;20022;-79
2021/03/01 11:16:22;;;;;;;6.45;3.35;;;4.20;66.90;;;;;;5015377;28;20030;-79
2021/03/01 11:18:48;;;;;;;5.20;1.75;;;4.30;66.80;;;;;;5015442;28;20018;-78
2021/03/01 11:21:14;;;;;;;3.20;2.00;;;4.30;66.40;;;;;;5014435;28;20426;-75
2021/03/01 11:23:40;;;;;;;3.92;2.25;;;4.20;66.20;;;;;;5015709;28;20032;-77
2021/03/01 11:26:07;;;;;;;7.30;4.05;;;4.20;67.00;;;;;;5015869;28;20053;-78
2021/03/01 11:28:33;;;;;;;3.42;2.00;;;4.30;67.20;;;;;;5015740;28;20490;-77
2021/03/01 11:30:59;;;;;;;3.03;1.80;;;4.30;67.10;;;;;;4997047;28;20026;-78
2021/03/01 11:33:25;;;;;;;4.80;1.92;;;4.20;66.90;;;;;;5015704;28;20099;-77
2021/03/01 11:35:54;;;;;;;3.97;2.45;;;4.20;67.10;;;;;;4997113;28;20038;-77
2021/03/01 11:38:24;;;;;;;6.03;2.55;;;4.40;67.20;;;;;;5015357;28;20026;-77
2021/03/01 11:40:51;;;;;;;4.05;1.92;;;4.30;67.20;;;;;;5015030;28;20045;-77
2021/03/01 11:43:17;;;;;;;;;;;4.40;67.30;;;;;;5015840;28;20025;-76
2021/03/01 11:45:43;;;;;;;2.92;2.22;;;4.30;67.30;;;;;;5010649;28;19909;-78
2021/03/01 11:48:11;;;;;;;4.93;2.60;;;4.30;67.30;;;;;;5001490;28;20364;-76
2021/03/01 11:50:38;;;;;;;4.68;2.50;;;4.20;67.40;;;;;;5015193;28;20025;-79
2021/03/01 11:53:05;;;;;;;3.97;2.85;;;4.30;67.80;;;;;;4996376;28;20045;-77
2021/03/01 11:55:31;;;;;;;1.65;1.38;;;4.20;67.80;;;;;;5013507;28;20026;-76
2021/03/01 11:57:57;;;;;;;2.10;1.20;;;4.30;67.80;;;;;;5014504;28;20068;-76
2021/03/01 12:00:23;;;;;;;2.85;1.70;;;4.40;67.60;;;;;;5013538;28;20021;-77
2021/03/01 12:02:49;;;;;;;4.53;2.40;;;4.30;67.30;;;;;;5015414;28;20025;-76
2021/03/01 12:05:15;;;;;;;7.28;2.67;;;4.40;67.90;;;;;;4997645;28;20025;-76
2021/03/01 12:07:41;;;;;;;2.92;2.20;;;4.40;68.00;;;;;;4994389;28;20026;-78
2021/03/01 12:10:08;;;;;;;3.50;2.30;;;4.50;67.30;;;;;;4992983;28;20026;-78
2021/03/01 12:12:34;;;;;;;2.47;1.60;;;4.60;67.40;;;;;;4989082;28;20058;-78
2021/03/01 12:14:59;;;;;;;2.85;1.83;;;4.60;66.60;;;;;;5014825;28;20049;-77
2021/03/01 12:17:25;;;;;;;2.92;2.67;;;4.30;67.10;;;;;;5013198;28;20037;-76
2021/03/01 12:19:51;;;;;;;6.10;2.67;;;4.40;67.80;;;;;;4994501;28;20475;-76
2021/03/01 12:22:17;;;;;;;4.80;2.42;;;4.30;67.80;;;;;;5013773;28;20026;-77
2021/03/01 12:24:43;;;;;;;7.75;3.90;;;4.30;67.80;;;;;;4996843;28;20391;-78
2021/03/01 12:27:09;;;;;;;3.15;2.42;;;4.30;68.40;;;;;;4994896;28;20030;-76
2021/03/01 12:29:34;;;;;;;4.40;2.30;;;4.40;68.30;;;;;;5014455;28;20022;-77
2021/03/01 12:32:00;;;;;;;4.28;2.75;;;4.40;68.30;;;;;;4993811;28;20030;-76
2021/03/01 12:34:26;;;;;;;3.17;2.22;;;4.40;68.10;;;;;;4995851;28;20026;-76
2021/03/01 12:36:52;;;;;;;2.53;1.70;;;4.40;68.40;;;;;;5014138;28;20038;-79
2021/03/01 12:39:18;;;;;;;5.32;2.50;;;4.30;68.40;;;;;;5013806;28;20018;-77
2021/03/01 12:41:44;;;;;;;5.63;1.73;;;4.30;68.20;;;;;;5013958;28;20065;-79
2021/03/01 12:44:10;;;;;;;5.35;2.80;;;4.10;68.50;;;;;;5014255;28;20049;-76
2021/03/01 12:46:36;;;;;;;3.20;2.22;;;4.10;69.30;;;;;;5013979;28;20033;-77
2021/03/01 12:49:02;;;;;;;3.45;2.85;;;4.10;69.50;;;;;;4993240;28;20480;-78
2021/03/01 12:51:28;;;;;;;2.42;1.83;;;4.00;69.30;;;;;;5012003;28;20483;-79
2021/03/01 12:53:54;;;;;;;2.05;1.77;;;4.00;69.90;;;;;;5014006;28;20026;-77
2021/03/01 12:56:20;;;;;;;3.65;1.67;;;4.00;70.30;;;;;;4996031;28;20403;-77
2021/03/01 12:58:46;;;;;;;3.25;2.20;;;4.00;70.40;;;;;;5014068;28;20028;-77
2021/03/01 13:01:11;;;;;;;2.67;1.98;;;4.00;70.60;;;;;;5013512;28;20037;-77
2021/03/01 13:03:37;;;;;;;3.90;1.98;;;4.00;70.60;;;;;;5013689;28;20495;-77